Time;durP1;ratioP1;P1;durP2;ratioP2;P2;SDS_P1;SDS_P2;PMS_P1;PMS_P2;Temp;Humidity;BMP_temperature;BMP_pressure;BME280_temperature;BME280_humidity;BME280_pressure;Samples;Min_cycle;Max_cycle;Signal;HPM_P1;HPM_P2
2021/12/14 00:00:26;;;;;;;0.70;0.40;;;8.50;99.90;;;;;;5037101;28;20884;-71
2021/12/14 00:02:52;;;;;;;0.70;0.50;;;8.50;99.90;;;;;;5036347;28;20460;-71
2021/12/14 00:05:20;;;;;;;0.70;0.50;;;8.50;99.90;;;;;;5036637;28;20413;-72
2021/12/14 00:07:46;;;;;;;0.70;0.40;;;8.60;99.90;;;;;;5037164;28;20402;-71
2021/12/14 00:11:13;;;;;;;0.70;0.53;;;8.50;99.90;;;;;;5034993;28;20402;-71
2021/12/14 00:13:19;;;;;;;0.70;0.57;;;8.50;99.90;;;;;;5034089;28;20466;-71
2021/12/14 00:15:46;;;;;;;1.53;1.43;;;8.40;99.90;;;;;;5034428;28;20476;-70
2021/12/14 00:18:13;;;;;;;0.70;0.57;;;8.40;99.90;;;;;;5034737;28;20410;-71
2021/12/14 00:20:55;;;;;;;0.70;0.40;;;8.40;99.90;;;;;;5034733;28;21078;-71
2021/12/14 00:26:10;;;;;;;0.70;0.50;;;8.40;99.90;;;;;;5034319;28;20906;-71
2021/12/14 00:28:36;;;;;;;1.00;1.00;;;8.50;99.90;;;;;;5049929;28;20785;-71
2021/12/14 00:31:08;;;;;;;0.70;0.50;;;8.50;99.90;;;;;;5034456;28;20406;-71
2021/12/14 00:33:35;;;;;;;0.80;0.77;;;8.50;99.90;;;;;;5032580;28;20194;-71
2021/12/14 00:36:05;;;;;;;0.70;0.50;;;8.50;99.90;;;;;;5034113;28;20456;-71
2021/12/14 00:38:33;;;;;;;0.70;0.50;;;8.50;99.90;;;;;;5034398;28;20406;-71
2021/12/14 00:41:05;;;;;;;0.80;0.60;;;8.50;99.90;;;;;;5032956;28;20835;-71
2021/12/14 00:43:30;;;;;;;1.63;1.27;;;8.50;99.90;;;;;;5034217;28;20410;-71
2021/12/14 00:45:56;;;;;;;0.70;0.70;;;8.50;99.90;;;;;;5033898;28;20399;-71
2021/12/14 00:48:22;;;;;;;0.70;0.50;;;8.50;99.90;;;;;;5034078;28;20230;-71
2021/12/14 00:50:53;;;;;;;0.70;0.50;;;8.40;99.90;;;;;;5034073;28;20298;-70
2021/12/14 00:53:19;;;;;;;0.70;0.40;;;8.40;99.90;;;;;;5032726;28;20931;-71
2021/12/14 00:55:47;;;;;;;0.70;0.50;;;8.40;99.90;;;;;;5033616;28;20454;-71
2021/12/14 00:58:14;;;;;;;0.70;0.50;;;8.40;99.90;;;;;;5032787;28;20199;-71
2021/12/14 01:00:45;;;;;;;1.20;1.10;;;8.30;99.90;;;;;;5034731;28;20834;-71
2021/12/14 01:03:11;;;;;;;0.80;0.80;;;8.30;99.90;;;;;;5035093;28;20422;-71
2021/12/14 01:05:41;;;;;;;0.70;0.50;;;8.30;99.90;;;;;;5048897;28;20417;-71
2021/12/14 01:08:11;;;;;;;0.70;0.50;;;8.30;99.90;;;;;;5033890;28;20456;-71
2021/12/14 01:10:43;;;;;;;0.70;0.50;;;8.30;99.90;;;;;;5033740;28;20452;-72
2021/12/14 01:13:10;;;;;;;0.70;0.50;;;8.30;99.90;;;;;;5033758;28;20826;-71
2021/12/14 01:21:20;;;;;;;1.60;1.50;;;8.40;99.90;;;;;;5035567;28;20407;-71
2021/12/14 01:23:46;;;;;;;0.70;0.50;;;8.40;99.90;;;;;;5035882;28;20401;-71
2021/12/14 01:26:17;;;;;;;0.70;0.50;;;8.40;99.90;;;;;;5035682;28;20911;-71
2021/12/14 01:28:45;;;;;;;0.70;0.40;;;8.40;99.90;;;;;;5035544;28;20421;-71
2021/12/14 01:31:21;;;;;;;0.70;0.60;;;8.50;99.90;;;;;;5035165;28;20426;-70
2021/12/14 01:33:54;;;;;;;0.70;0.60;;;8.40;99.90;;;;;;5035054;28;20417;-71
2021/12/14 01:36:25;;;;;;;1.47;1.37;;;8.40;99.90;;;;;;5034769;28;20450;-71
2021/12/14 01:41:48;;;;;;;1.10;1.00;;;8.40;99.90;;;;;;5034025;28;20491;-71
2021/12/14 01:44:14;;;;;;;0.80;0.80;;;8.40;99.90;;;;;;5036268;28;20876;-71
2021/12/14 01:46:43;;;;;;;0.70;0.50;;;8.30;99.90;;;;;;5034203;28;20422;-71
2021/12/14 01:49:11;;;;;;;0.73;0.67;;;8.40;99.90;;;;;;5035460;28;20410;-71
2021/12/14 01:51:40;;;;;;;0.70;0.50;;;8.40;99.90;;;;;;5035031;28;20430;-71
2021/12/14 01:54:08;;;;;;;0.70;0.50;;;8.40;99.90;;;;;;5034652;28;20416;-71
2021/12/14 01:56:34;;;;;;;0.70;0.50;;;8.50;99.90;;;;;;5032577;28;20462;-72
2021/12/14 01:59:08;;;;;;;0.70;0.47;;;8.40;99.90;;;;;;5035071;28;20410;-71
2021/12/14 02:01:46;;;;;;;0.70;0.60;;;8.40;99.90;;;;;;5035117;28;20438;-70
2021/12/14 02:04:19;;;;;;;0.70;0.60;;;8.40;99.90;;;;;;5050921;28;20452;-71
2021/12/14 02:07:00;;;;;;;2.47;1.13;;;8.50;99.90;;;;;;5049592;28;20419;-71
2021/12/14 02:09:28;;;;;;;0.80;0.70;;;8.50;99.90;;;;;;5035249;28;20415;-71
2021/12/14 02:11:57;;;;;;;0.70;0.40;;;8.50;99.90;;;;;;5034939;28;20466;-71
2021/12/14 02:14:25;;;;;;;1.43;1.07;;;8.50;99.90;;;;;;5035149;28;20449;-71
2021/12/14 02:16:58;;;;;;;1.30;1.00;;;8.60;99.90;;;;;;5034751;28;20955;-71
2021/12/14 02:19:24;;;;;;;0.70;0.50;;;8.60;99.90;;;;;;5034859;28;20402;-71
2021/12/14 02:21:52;;;;;;;4.30;0.80;;;8.60;99.90;;;;;;5033204;28;20821;-71
2021/12/14 02:24:21;;;;;;;0.70;0.50;;;8.70;99.90;;;;;;5034421;28;20406;-71
2021/12/14 02:26:48;;;;;;;1.20;1.07;;;8.70;99.90;;;;;;5034045;28;20417;-71
2021/12/14 02:29:42;;;;;;;0.70;0.53;;;8.70;99.90;;;;;;5034335;28;20506;-72
2021/12/14 02:32:12;;;;;;;0.90;0.70;;;8.70;99.90;;;;;;5034209;28;20527;-71
2021/12/14 02:34:42;;;;;;;1.07;0.83;;;8.70;99.90;;;;;;5033992;28;20403;-71
2021/12/14 02:37:07;;;;;;;0.80;0.60;;;8.70;99.90;;;;;;5033863;28;20541;-71
2021/12/14 02:42:07;;;;;;;0.70;0.50;;;8.70;99.90;;;;;;5033940;28;20470;-71
2021/12/14 02:44:33;;;;;;;0.70;0.50;;;8.80;99.90;;;;;;5034046;28;20406;-71
2021/12/14 02:47:05;;;;;;;0.80;0.80;;;8.80;99.90;;;;;;5033341;28;20961;-71
2021/12/14 02:49:34;;;;;;;0.70;0.50;;;8.70;99.90;;;;;;5033932;28;20179;-71
2021/12/14 02:52:06;;;;;;;0.70;0.50;;;8.70;99.90;;;;;;5033303;28;20528;-71
2021/12/14 02:54:44;;;;;;;1.67;0.73;;;8.60;99.90;;;;;;5033739;28;20827;-71
2021/12/14 02:57:16;;;;;;;0.70;0.50;;;8.60;99.90;;;;;;5031667;28;20461;-72
2021/12/14 02:59:44;;;;;;;0.83;0.83;;;8.60;99.90;;;;;;5033529;28;20471;-71
2021/12/14 03:02:14;;;;;;;1.23;0.87;;;8.60;99.90;;;;;;5033346;28;20426;-71
2021/12/14 03:04:57;;;;;;;0.70;0.50;;;8.60;99.90;;;;;;5034164;28;20502;-71
2021/12/14 03:07:27;;;;;;;6.70;0.97;;;8.50;99.90;;;;;;5033669;28;20414;-71
2021/12/14 03:10:52;;;;;;;0.70;0.43;;;8.60;99.90;;;;;;5033445;28;20403;-72
2021/12/14 03:12:49;;;;;;;0.70;0.50;;;8.50;99.90;;;;;;5019903;28;21004;-71
2021/12/14 03:15:29;;;;;;;0.80;0.70;;;8.60;99.90;;;;;;5032881;28;20421;-72
2021/12/14 03:18:02;;;;;;;1.07;0.87;;;8.70;99.90;;;;;;5033070;28;20537;-71
2021/12/14 03:20:32;;;;;;;0.80;0.80;;;8.70;99.90;;;;;;5032952;28;20432;-71
2021/12/14 03:22:58;;;;;;;0.70;0.60;;;8.80;99.90;;;;;;5032880;28;20434;-70
2021/12/14 03:25:23;;;;;;;0.70;0.67;;;8.80;99.90;;;;;;5032407;28;20420;-71
2021/12/14 03:27:52;;;;;;;0.70;0.50;;;8.80;99.90;;;;;;5033061;28;20168;-72
2021/12/14 03:30:30;;;;;;;0.70;0.50;;;8.70;99.90;;;;;;5033457;28;20194;-72
2021/12/14 03:33:08;;;;;;;0.83;0.83;;;8.70;99.90;;;;;;5032864;28;20430;-71
2021/12/14 03:35:40;;;;;;;0.70;0.50;;;8.70;99.90;;;;;;5032951;28;20397;-72
2021/12/14 03:38:20;;;;;;;1.10;0.60;;;8.70;99.90;;;;;;5048083;28;20908;-71
2021/12/14 03:40:58;;;;;;;1.23;1.13;;;8.70;99.90;;;;;;5032734;28;20501;-71
2021/12/14 03:43:24;;;;;;;0.70;0.50;;;8.70;99.90;;;;;;5032644;28;20444;-71
2021/12/14 03:45:50;;;;;;;0.70;0.50;;;8.70;99.90;;;;;;5032639;28;20442;-71
2021/12/14 03:48:16;;;;;;;0.70;0.67;;;8.60;99.90;;;;;;5048107;28;20550;-71
2021/12/14 03:50:42;;;;;;;2.40;2.20;;;8.50;99.90;;;;;;5033022;28;20432;-72
2021/12/14 03:53:11;;;;;;;1.03;0.80;;;8.50;99.90;;;;;;5033053;28;20192;-71
2021/12/14 03:55:42;;;;;;;0.80;0.70;;;8.40;99.90;;;;;;5032392;28;20609;-71
2021/12/14 03:58:15;;;;;;;0.70;0.40;;;8.40;99.90;;;;;;5033162;28;20403;-71
2021/12/14 04:00:53;;;;;;;1.37;0.70;;;8.40;99.90;;;;;;5032886;28;20413;-71
2021/12/14 04:03:22;;;;;;;0.70;0.50;;;8.40;99.90;;;;;;5032922;28;20494;-71
2021/12/14 04:05:48;;;;;;;0.80;0.70;;;8.40;99.90;;;;;;5032227;28;20445;-72
2021/12/14 04:08:15;;;;;;;1.47;1.37;;;8.50;99.90;;;;;;5048129;28;20429;-72
2021/12/14 04:10:43;;;;;;;2.20;1.00;;;8.50;99.90;;;;;;5036067;28;20414;-71
2021/12/14 04:13:18;;;;;;;0.80;0.70;;;8.60;99.90;;;;;;5035776;28;20950;-70
2021/12/14 04:15:44;;;;;;;1.53;0.90;;;8.60;99.90;;;;;;5035636;28;20448;-71
2021/12/14 04:18:10;;;;;;;1.03;0.70;;;8.70;99.90;;;;;;5036100;28;20406;-71
2021/12/14 04:20:38;;;;;;;0.97;0.70;;;8.70;99.90;;;;;;5051692;28;20171;-70
2021/12/14 04:23:10;;;;;;;0.80;0.70;;;8.70;99.90;;;;;;5035854;28;20184;-71
2021/12/14 04:25:38;;;;;;;1.00;0.90;;;8.70;99.90;;;;;;5035167;28;20442;-72
2021/12/14 04:28:11;;;;;;;1.00;0.83;;;8.80;99.90;;;;;;5034729;28;20441;-71
2021/12/14 04:30:37;;;;;;;1.00;0.90;;;8.80;99.90;;;;;;5035962;28;20402;-72
2021/12/14 04:33:07;;;;;;;1.13;0.70;;;8.80;99.90;;;;;;5034510;28;20430;-71
2021/12/14 04:35:36;;;;;;;3.57;0.73;;;8.80;99.90;;;;;;5035683;28;20414;-72
2021/12/14 04:38:12;;;;;;;1.07;0.80;;;8.80;99.90;;;;;;5035794;28;20406;-71
2021/12/14 04:51:59;;;;;;;2.13;0.70;;;8.80;99.90;;;;;;5035778;28;20529;-72
2021/12/14 04:54:38;;;;;;;0.70;0.50;;;8.80;99.90;;;;;;5034398;28;20414;-72
2021/12/14 04:57:17;;;;;;;2.30;1.00;;;8.80;99.90;;;;;;5034990;28;20461;-70
2021/12/14 04:59:42;;;;;;;2.67;2.47;;;8.70;99.90;;;;;;5035439;28;20417;-71
2021/12/14 05:02:16;;;;;;;0.70;0.50;;;8.70;99.90;;;;;;5033655;28;20438;-71
2021/12/14 05:04:42;;;;;;;3.37;1.27;;;8.70;99.90;;;;;;5050503;28;20179;-71
2021/12/14 05:09:54;;;;;;;0.80;0.80;;;8.70;99.90;;;;;;5035165;28;20429;-71
2021/12/14 05:12:24;;;;;;;0.90;0.70;;;8.70;99.90;;;;;;5035044;28;20461;-71
2021/12/14 05:14:50;;;;;;;0.70;0.50;;;8.70;99.90;;;;;;5035255;28;20935;-71
2021/12/14 05:17:23;;;;;;;0.80;0.63;;;8.70;99.90;;;;;;5035269;28;20476;-72
2021/12/14 05:19:51;;;;;;;0.97;0.87;;;8.60;99.90;;;;;;5034533;28;20399;-72
2021/12/14 05:22:21;;;;;;;2.10;1.90;;;8.60;99.90;;;;;;5034742;28;20454;-71
2021/12/14 05:24:52;;;;;;;0.70;0.50;;;8.60;99.90;;;;;;5050137;28;20414;-71
2021/12/14 05:27:25;;;;;;;1.10;1.00;;;8.60;99.90;;;;;;5035002;28;20414;-71
2021/12/14 05:29:51;;;;;;;0.93;0.83;;;8.50;99.90;;;;;;5034866;28;20406;-71
2021/12/14 05:32:18;;;;;;;1.00;0.60;;;8.50;99.90;;;;;;5034723;28;20551;-71
2021/12/14 05:34:46;;;;;;;1.50;1.40;;;8.50;99.90;;;;;;5034802;28;20459;-71
2021/12/14 05:37:18;;;;;;;1.63;1.40;;;8.50;99.90;;;;;;5034760;28;20544;-71
2021/12/14 05:40:03;;;;;;;1.00;0.87;;;8.50;99.90;;;;;;5034780;28;20886;-71
2021/12/14 05:45:21;;;;;;;2.30;1.47;;;8.40;99.90;;;;;;5034879;28;20460;-72
2021/12/14 05:47:51;;;;;;;1.13;1.03;;;8.40;99.90;;;;;;5034384;28;20467;-71
2021/12/14 05:50:23;;;;;;;2.10;2.00;;;8.50;99.90;;;;;;5034566;28;20446;-71
2021/12/14 05:52:48;;;;;;;1.27;0.83;;;8.40;99.90;;;;;;5034425;28;20532;-71
2021/12/14 05:55:19;;;;;;;0.70;0.60;;;8.40;99.90;;;;;;5033942;28;20515;-71
2021/12/14 05:57:45;;;;;;;0.70;0.50;;;8.30;99.90;;;;;;5034508;28;20345;-71
2021/12/14 06:00:13;;;;;;;0.70;0.50;;;8.30;99.90;;;;;;5034193;28;20442;-71
2021/12/14 06:02:39;;;;;;;0.80;0.80;;;8.30;99.90;;;;;;5032718;28;20195;-71
2021/12/14 06:05:10;;;;;;;1.07;0.97;;;8.30;99.90;;;;;;5049285;28;20442;-71
2021/12/14 06:07:35;;;;;;;5.30;1.23;;;8.30;99.90;;;;;;5034245;28;20492;-71
2021/12/14 06:10:01;;;;;;;3.60;2.20;;;8.30;99.90;;;;;;5034002;28;20904;-71
2021/12/14 06:12:33;;;;;;;0.70;0.50;;;8.30;99.90;;;;;;5034451;28;20191;-71
2021/12/14 06:15:00;;;;;;;1.33;0.80;;;8.20;99.90;;;;;;5033356;28;20178;-71
2021/12/14 06:17:30;;;;;;;0.70;0.50;;;8.20;99.90;;;;;;5034475;28;20999;-71
2021/12/14 06:20:00;;;;;;;0.80;0.80;;;8.10;99.90;;;;;;5034200;28;20449;-72
2021/12/14 06:22:26;;;;;;;2.93;2.73;;;8.10;99.90;;;;;;5033818;28;20422;-71
2021/12/14 06:25:01;;;;;;;0.70;0.50;;;8.10;99.90;;;;;;5033612;28;20497;-71
2021/12/14 06:27:29;;;;;;;1.87;1.77;;;8.10;99.90;;;;;;5034117;28;20417;-71
2021/12/14 06:30:00;;;;;;;0.80;0.70;;;8.20;99.90;;;;;;5033787;28;20422;-72
2021/12/14 06:32:30;;;;;;;0.93;0.83;;;8.20;99.90;;;;;;5049097;28;20476;-71
2021/12/14 06:34:59;;;;;;;3.70;1.60;;;8.10;99.90;;;;;;5033472;28;20449;-71
2021/12/14 06:38:10;;;;;;;1.00;0.80;;;8.20;99.90;;;;;;5033802;28;21028;-71
2021/12/14 06:40:38;;;;;;;0.93;0.83;;;8.10;99.90;;;;;;5034330;28;20398;-71
2021/12/14 06:43:10;;;;;;;2.70;0.63;;;8.20;99.90;;;;;;5032633;28;20422;-71
2021/12/14 06:45:45;;;;;;;1.60;1.50;;;8.20;99.90;;;;;;5031841;28;20867;-71
2021/12/14 06:48:20;;;;;;;0.70;0.50;;;8.20;99.90;;;;;;5032541;28;20503;-71
2021/12/14 06:51:08;;;;;;;2.13;0.80;;;8.20;99.90;;;;;;5033485;28;20489;-71
2021/12/14 06:53:35;;;;;;;0.70;0.43;;;8.20;99.90;;;;;;5033755;28;20768;-72
2021/12/14 06:56:04;;;;;;;0.70;0.50;;;8.20;99.90;;;;;;5033339;28;20450;-72
2021/12/14 06:58:32;;;;;;;0.70;0.50;;;8.20;99.90;;;;;;5033706;28;20490;-70
2021/12/14 07:01:20;;;;;;;0.70;0.50;;;8.20;99.90;;;;;;5033269;28;20505;-71
2021/12/14 07:03:49;;;;;;;0.70;0.50;;;8.10;99.90;;;;;;5032397;28;20422;-71
2021/12/14 07:06:26;;;;;;;0.93;0.93;;;8.10;99.90;;;;;;5033227;28;20406;-71
2021/12/14 07:08:54;;;;;;;2.10;1.10;;;8.10;99.90;;;;;;5033386;28;20402;-71
2021/12/14 07:11:26;;;;;;;0.70;0.50;;;8.10;99.90;;;;;;5033462;28;20433;-71
2021/12/14 07:13:53;;;;;;;0.70;0.50;;;8.10;99.90;;;;;;5032270;28;20939;-71
2021/12/14 07:16:30;;;;;;;3.00;2.30;;;8.20;99.90;;;;;;5033826;28;20449;-71
2021/12/14 07:18:58;;;;;;;0.70;0.60;;;8.30;99.90;;;;;;5034240;28;20382;-71
2021/12/14 07:21:50;;;;;;;0.90;0.90;;;8.30;99.90;;;;;;5048767;28;20434;-72
2021/12/14 07:24:21;;;;;;;0.80;0.70;;;8.30;99.90;;;;;;5033461;28;20422;-71
2021/12/14 07:26:48;;;;;;;2.53;1.37;;;8.40;99.90;;;;;;5032610;28;20501;-71
2021/12/14 07:29:22;;;;;;;0.60;0.43;;;8.40;99.90;;;;;;5033110;28;20446;-71
2021/12/14 07:31:47;;;;;;;0.70;0.70;;;8.40;99.90;;;;;;5032669;28;20434;-71
2021/12/14 07:34:13;;;;;;;0.70;0.60;;;8.40;99.90;;;;;;5031708;28;20413;-71
2021/12/14 07:36:39;;;;;;;0.70;0.50;;;8.40;99.90;;;;;;5031381;28;20199;-71
2021/12/14 07:39:11;;;;;;;1.43;1.20;;;8.30;99.90;;;;;;5031636;28;20251;-71
2021/12/14 07:41:56;;;;;;;0.70;0.50;;;8.30;99.90;;;;;;5031572;28;20834;-71
2021/12/14 07:44:38;;;;;;;1.73;1.63;;;8.40;99.90;;;;;;5033661;28;20507;-71
2021/12/14 07:47:14;;;;;;;0.70;0.40;;;8.30;99.90;;;;;;5035182;28;20887;-71
2021/12/14 07:49:41;;;;;;;0.70;0.50;;;8.40;99.90;;;;;;5035392;28;20930;-71
2021/12/14 07:52:18;;;;;;;2.00;1.90;;;8.40;99.90;;;;;;5035216;28;20441;-71
2021/12/14 07:54:51;;;;;;;0.70;0.50;;;8.30;99.90;;;;;;5035253;28;20430;-71
2021/12/14 07:57:23;;;;;;;0.70;0.50;;;8.40;99.90;;;;;;5050419;28;20453;-71
2021/12/14 07:59:56;;;;;;;5.80;3.23;;;8.40;99.90;;;;;;5035296;28;20778;-71
2021/12/14 08:02:24;;;;;;;0.60;0.50;;;8.50;99.90;;;;;;5034997;28;20522;-71
2021/12/14 08:04:49;;;;;;;1.73;1.63;;;8.50;99.90;;;;;;5034938;28;20413;-71
2021/12/14 08:07:34;;;;;;;0.90;0.90;;;8.50;99.90;;;;;;5034888;28;20776;-71
2021/12/14 08:10:16;;;;;;;0.73;0.63;;;8.50;99.90;;;;;;5035985;28;20183;-71
2021/12/14 08:13:13;;;;;;;1.10;1.00;;;8.50;99.90;;;;;;5041382;28;20437;-71
2021/12/14 08:15:50;;;;;;;1.10;1.00;;;8.50;99.90;;;;;;5040085;28;20776;-71
2021/12/14 08:18:27;;;;;;;0.70;0.50;;;8.40;99.90;;;;;;5042500;28;20421;-71
2021/12/14 08:20:58;;;;;;;0.70;0.50;;;8.40;99.90;;;;;;5042205;28;20425;-71
2021/12/14 08:23:26;;;;;;;1.50;1.40;;;8.30;99.90;;;;;;5046830;28;20413;-72
2021/12/14 08:25:56;;;;;;;1.27;1.17;;;8.40;99.90;;;;;;5044087;28;20410;-70
2021/12/14 08:28:22;;;;;;;1.53;1.43;;;8.30;99.90;;;;;;5034687;28;20411;-71
2021/12/14 08:31:01;;;;;;;0.70;0.50;;;8.30;99.90;;;;;;5044088;28;20467;-71
2021/12/14 08:33:30;;;;;;;0.70;0.50;;;8.30;99.90;;;;;;5041954;28;20412;-71
2021/12/14 08:36:00;;;;;;;1.00;0.90;;;8.30;99.90;;;;;;5042635;28;20808;-71
2021/12/14 08:38:28;;;;;;;3.33;2.20;;;8.30;99.90;;;;;;5053053;28;20480;-70
2021/12/14 08:40:58;;;;;;;0.67;0.47;;;8.30;99.90;;;;;;5054209;28;20398;-71
2021/12/14 08:43:31;;;;;;;0.90;0.90;;;8.40;99.90;;;;;;5054254;28;20416;-71
2021/12/14 08:46:06;;;;;;;0.70;0.50;;;8.40;99.90;;;;;;5054133;28;20413;-71
2021/12/14 08:48:35;;;;;;;0.70;0.60;;;8.40;99.90;;;;;;5054115;28;20804;-71
2021/12/14 08:51:13;;;;;;;1.57;0.97;;;8.50;99.90;;;;;;5054763;28;20406;-71
2021/12/14 08:53:42;;;;;;;1.00;0.70;;;8.60;99.90;;;;;;5054502;28;20503;-71
2021/12/14 08:56:11;;;;;;;1.43;1.20;;;8.60;99.90;;;;;;5055206;28;20961;-70
2021/12/14 08:58:37;;;;;;;0.70;0.50;;;8.60;99.90;;;;;;5070985;28;20405;-71
2021/12/14 09:01:11;;;;;;;0.70;0.50;;;8.60;99.90;;;;;;5054434;28;20409;-71
2021/12/14 09:03:44;;;;;;;2.70;1.00;;;8.60;99.90;;;;;;5053887;28;20405;-71
2021/12/14 09:06:19;;;;;;;0.70;0.50;;;8.50;99.90;;;;;;5053631;28;20413;-71
2021/12/14 09:08:48;;;;;;;0.70;0.50;;;8.60;99.90;;;;;;5053773;28;20898;-71
2021/12/14 09:11:18;;;;;;;0.70;0.50;;;8.50;99.90;;;;;;5053674;28;20483;-71
2021/12/14 09:13:43;;;;;;;0.70;0.47;;;8.50;99.90;;;;;;5053645;28;20416;-71
2021/12/14 09:16:16;;;;;;;0.87;0.63;;;8.50;99.90;;;;;;5053271;28;20973;-71
2021/12/14 09:18:49;;;;;;;0.70;0.50;;;8.50;99.90;;;;;;5053612;28;20205;-71
2021/12/14 09:21:21;;;;;;;1.13;0.90;;;8.50;99.90;;;;;;5053549;28;20412;-71
2021/12/14 09:23:52;;;;;;;0.70;0.40;;;8.60;99.90;;;;;;5053381;28;20842;-71
2021/12/14 09:26:21;;;;;;;0.70;0.50;;;8.50;99.90;;;;;;5053261;28;20503;-71
2021/12/14 09:28:48;;;;;;;1.53;1.43;;;8.60;99.90;;;;;;5053447;28;20405;-71
2021/12/14 09:31:19;;;;;;;0.70;0.50;;;8.60;99.90;;;;;;5053335;28;20413;-71
2021/12/14 09:33:46;;;;;;;1.37;1.27;;;8.70;99.90;;;;;;5053288;28;20512;-71
2021/12/14 09:36:13;;;;;;;1.30;1.03;;;8.70;99.90;;;;;;5052952;28;20445;-71
2021/12/14 09:38:46;;;;;;;0.70;0.60;;;8.70;99.90;;;;;;5053223;28;21034;-71
2021/12/14 09:41:15;;;;;;;1.13;1.00;;;8.70;99.90;;;;;;5054610;28;20820;-71
2021/12/14 09:43:41;;;;;;;0.80;0.70;;;8.70;99.90;;;;;;5054920;28;20402;-71
2021/12/14 09:46:09;;;;;;;1.00;1.00;;;8.80;99.90;;;;;;5053073;28;20398;-71
2021/12/14 09:48:40;;;;;;;0.70;0.50;;;8.90;99.90;;;;;;5052982;28;20421;-71
2021/12/14 09:51:15;;;;;;;3.63;1.37;;;8.90;99.90;;;;;;5052971;28;20405;-71
2021/12/14 09:53:44;;;;;;;1.57;1.47;;;8.90;99.90;;;;;;5068297;28;20412;-71
2021/12/14 09:56:13;;;;;;;3.13;3.03;;;8.90;99.90;;;;;;5052318;28;20461;-71
2021/12/14 09:58:43;;;;;;;0.80;0.73;;;8.90;99.90;;;;;;5052841;28;20922;-71
2021/12/14 10:01:15;;;;;;;1.30;1.23;;;9.00;99.90;;;;;;5052752;28;20421;-71
2021/12/14 10:03:43;;;;;;;1.77;0.90;;;9.00;99.90;;;;;;5052777;28;20396;-71
2021/12/14 10:06:19;;;;;;;1.00;0.90;;;9.00;99.90;;;;;;5051643;28;20406;-71
2021/12/14 10:08:52;;;;;;;3.13;2.93;;;9.00;99.90;;;;;;5052744;28;20433;-71
2021/12/14 10:12:19;;;;;;;0.87;0.87;;;9.10;99.90;;;;;;5053965;28;20512;-71
2021/12/14 10:14:21;;;;;;;0.70;0.43;;;9.10;99.90;;;;;;5052636;28;20496;-71
2021/12/14 10:16:49;;;;;;;0.80;0.80;;;9.10;99.90;;;;;;5052239;28;20934;-71
2021/12/14 10:19:19;;;;;;;0.70;0.50;;;9.10;99.90;;;;;;5052522;28;20657;-71
2021/12/14 10:21:52;;;;;;;0.70;0.50;;;9.10;99.90;;;;;;5051035;28;20429;-71
2021/12/14 10:24:19;;;;;;;0.70;0.60;;;9.10;99.90;;;;;;5052646;28;20456;-71
2021/12/14 10:26:49;;;;;;;0.70;0.60;;;9.10;99.90;;;;;;5052076;28;20770;-72
2021/12/14 10:29:16;;;;;;;0.70;0.50;;;9.20;99.90;;;;;;5052294;28;20429;-71
2021/12/14 10:31:58;;;;;;;0.63;0.40;;;9.10;99.90;;;;;;5052309;28;20474;-71
2021/12/14 10:34:27;;;;;;;0.90;0.70;;;9.10;99.90;;;;;;5052341;28;20433;-71
2021/12/14 10:37:09;;;;;;;0.70;0.50;;;9.10;99.90;;;;;;5051469;28;20457;-71
2021/12/14 10:39:40;;;;;;;4.00;0.83;;;9.20;99.90;;;;;;5052272;28;20398;-71
2021/12/14 10:45:03;;;;;;;0.83;0.83;;;9.20;99.90;;;;;;5052099;28;20404;-71
2021/12/14 10:47:30;;;;;;;0.83;0.57;;;9.20;99.90;;;;;;5052047;28;20474;-71
2021/12/14 10:49:58;;;;;;;0.80;0.80;;;9.20;99.90;;;;;;5052083;28;20436;-70
2021/12/14 10:52:28;;;;;;;2.40;0.93;;;9.20;99.90;;;;;;5051862;28;20475;-71
2021/12/14 10:55:03;;;;;;;0.70;0.60;;;9.20;99.90;;;;;;5051640;28;20527;-71
2021/12/14 10:57:31;;;;;;;2.20;1.67;;;9.30;99.90;;;;;;5051835;28;20817;-71
2021/12/14 10:59:57;;;;;;;1.63;1.53;;;9.30;99.90;;;;;;5051936;28;20393;-71
2021/12/14 11:02:26;;;;;;;0.70;0.50;;;9.30;99.90;;;;;;5051831;28;20490;-70
2021/12/14 11:04:57;;;;;;;0.70;0.50;;;9.40;99.90;;;;;;5052968;28;20426;-71
2021/12/14 11:07:37;;;;;;;3.20;0.80;;;9.40;99.90;;;;;;5053481;28;20886;-72
2021/12/14 11:10:24;;;;;;;2.00;0.70;;;9.50;99.90;;;;;;5052050;28;20821;-71
2021/12/14 11:12:56;;;;;;;2.70;2.50;;;9.60;99.90;;;;;;5053180;28;20429;-71
2021/12/14 11:15:29;;;;;;;0.70;0.50;;;9.70;99.90;;;;;;5068909;28;21001;-71
2021/12/14 11:18:13;;;;;;;1.60;1.50;;;9.80;99.90;;;;;;5054398;28;20479;-71
2021/12/14 11:20:58;;;;;;;0.80;0.80;;;9.90;99.90;;;;;;5055344;28;20459;-71
2021/12/14 11:23:40;;;;;;;0.93;0.83;;;9.80;99.90;;;;;;5055556;28;20405;-70
2021/12/14 11:26:19;;;;;;;1.20;1.07;;;9.80;99.90;;;;;;5055972;28;20817;-70
2021/12/14 11:28:51;;;;;;;0.70;0.50;;;9.70;99.90;;;;;;5067767;28;20417;-71
2021/12/14 11:31:27;;;;;;;0.70;0.50;;;9.70;99.90;;;;;;5046076;28;20463;-70
2021/12/14 11:34:03;;;;;;;3.37;1.60;;;9.60;99.90;;;;;;5037361;28;20420;-70
2021/12/14 11:36:37;;;;;;;1.67;1.57;;;9.70;99.90;;;;;;5042697;28;20452;-70
2021/12/14 11:39:23;;;;;;;0.73;0.67;;;9.70;99.90;;;;;;5045790;28;20421;-71
2021/12/14 11:41:50;;;;;;;2.53;1.97;;;9.70;99.90;;;;;;5037137;28;20852;-71
2021/12/14 11:44:34;;;;;;;0.70;0.50;;;9.60;99.90;;;;;;5035808;28;20986;-72
2021/12/14 11:50:00;;;;;;;0.70;0.60;;;9.60;99.90;;;;;;5046001;28;20424;-71
2021/12/14 11:52:37;;;;;;;1.40;0.70;;;9.60;99.90;;;;;;5051370;28;20440;-71
2021/12/14 11:55:21;;;;;;;2.27;2.07;;;9.70;99.90;;;;;;5054536;28;20424;-71
2021/12/14 11:57:48;;;;;;;0.70;0.50;;;9.70;99.90;;;;;;5049002;28;20489;-72
2021/12/14 12:00:21;;;;;;;1.03;0.97;;;9.70;99.90;;;;;;5051010;28;20412;-72
2021/12/14 12:02:47;;;;;;;2.73;1.53;;;9.70;99.90;;;;;;5055163;28;20423;-70
2021/12/14 12:05:22;;;;;;;0.70;0.60;;;9.70;99.90;;;;;;5054699;28;20532;-70
2021/12/14 12:10:42;;;;;;;0.77;0.77;;;9.60;99.90;;;;;;5052791;28;20744;-70
2021/12/14 12:13:08;;;;;;;2.13;2.00;;;9.50;99.90;;;;;;5015072;28;20443;-72
2021/12/14 12:15:39;;;;;;;2.73;2.63;;;9.60;99.90;;;;;;5014864;28;20404;-71
2021/12/14 12:18:05;;;;;;;1.00;0.63;;;9.50;99.90;;;;;;5015099;28;20191;-71
2021/12/14 12:20:40;;;;;;;0.90;0.70;;;9.60;99.90;;;;;;5014937;28;20808;-71
2021/12/14 12:23:18;;;;;;;4.93;1.63;;;9.60;99.90;;;;;;5014948;28;20191;-71
2021/12/14 12:25:51;;;;;;;0.70;0.50;;;9.60;99.90;;;;;;5014736;28;20444;-71
2021/12/14 12:28:28;;;;;;;1.23;0.97;;;9.70;99.90;;;;;;5014925;28;20757;-71
2021/12/14 12:31:05;;;;;;;0.70;0.57;;;9.70;99.90;;;;;;5013982;28;20410;-71
2021/12/14 12:33:40;;;;;;;4.63;2.23;;;9.70;99.90;;;;;;5014687;28;20403;-71
2021/12/14 12:36:16;;;;;;;1.10;1.00;;;9.70;99.90;;;;;;5013988;28;20816;-71
2021/12/14 12:38:53;;;;;;;0.90;0.60;;;9.70;99.90;;;;;;5014649;28;20399;-71
2021/12/14 12:41:30;;;;;;;1.90;1.63;;;9.80;99.90;;;;;;5014654;28;20426;-71
2021/12/14 12:44:22;;;;;;;1.00;0.90;;;9.90;99.90;;;;;;5014495;28;20399;-70
2021/12/14 12:46:51;;;;;;;0.80;0.70;;;9.90;99.90;;;;;;5014870;28;20426;-71
2021/12/14 12:49:23;;;;;;;1.43;1.13;;;9.90;99.90;;;;;;5017247;28;20407;-71
2021/12/14 12:52:06;;;;;;;1.27;1.17;;;9.90;99.90;;;;;;5031906;28;20447;-71
2021/12/14 12:54:57;;;;;;;1.27;1.17;;;10.00;99.90;;;;;;5015707;28;20395;-71
2021/12/14 12:57:37;;;;;;;1.10;1.00;;;9.90;99.90;;;;;;5014408;28;20999;-71
2021/12/14 13:00:11;;;;;;;1.40;1.23;;;9.90;99.90;;;;;;5014355;28;20768;-71
2021/12/14 13:03:13;;;;;;;1.43;1.23;;;9.90;99.90;;;;;;5014222;28;20417;-71
2021/12/14 13:05:56;;;;;;;0.70;0.50;;;9.90;99.90;;;;;;4994294;28;20411;-72
2021/12/14 13:08:21;;;;;;;3.63;1.43;;;10.00;99.90;;;;;;5014243;28;20772;-71
2021/12/14 13:11:05;;;;;;;1.27;1.17;;;9.80;99.90;;;;;;5013887;28;20403;-71
2021/12/14 13:13:35;;;;;;;0.70;0.60;;;9.80;99.90;;;;;;5014941;28;20172;-72
2021/12/14 13:16:17;;;;;;;0.70;0.57;;;9.80;99.90;;;;;;5015970;28;20490;-71
2021/12/14 13:19:03;;;;;;;1.73;1.63;;;9.80;99.90;;;;;;5013991;28;21004;-71
2021/12/14 13:21:57;;;;;;;0.80;0.80;;;9.70;99.90;;;;;;5013923;28;20427;-71
2021/12/14 13:24:33;;;;;;;1.03;0.90;;;9.70;99.90;;;;;;5013943;28;20411;-72
2021/12/14 13:27:04;;;;;;;1.00;0.97;;;9.70;99.90;;;;;;5013561;28;20435;-72
2021/12/14 13:29:44;;;;;;;1.33;1.23;;;9.60;99.90;;;;;;5013746;28;20758;-71
2021/12/14 13:32:35;;;;;;;0.70;0.50;;;9.70;99.90;;;;;;5013593;28;20431;-71
2021/12/14 13:35:21;;;;;;;1.13;1.03;;;9.70;99.90;;;;;;5013400;28;20865;-72
2021/12/14 13:38:07;;;;;;;0.70;0.60;;;9.80;99.90;;;;;;5013615;28;20445;-73
2021/12/14 13:40:37;;;;;;;2.93;0.80;;;9.80;99.90;;;;;;5012025;28;20411;-73
2021/12/14 13:43:37;;;;;;;0.70;0.53;;;9.80;99.90;;;;;;5013520;28;20917;-72
2021/12/14 13:46:05;;;;;;;0.70;0.50;;;9.80;99.90;;;;;;5013096;28;20399;-72
2021/12/14 13:48:36;;;;;;;4.40;2.93;;;9.80;99.90;;;;;;5013341;28;20764;-72
2021/12/14 13:51:11;;;;;;;0.80;0.60;;;9.70;99.90;;;;;;5013210;28;20456;-72
2021/12/14 13:53:37;;;;;;;2.60;1.47;;;9.60;99.90;;;;;;5013210;28;20394;-72
2021/12/14 13:56:25;;;;;;;0.80;0.70;;;9.50;99.90;;;;;;5012582;28;20462;-72
2021/12/14 13:58:53;;;;;;;4.07;2.23;;;9.40;99.90;;;;;;5013177;28;20403;-71
2021/12/14 14:01:23;;;;;;;1.43;1.30;;;9.40;99.90;;;;;;5013049;28;20434;-72
2021/12/14 14:03:55;;;;;;;0.80;0.70;;;9.40;99.90;;;;;;5012990;28;20408;-71